Sand Point, Michigan
Current Conditions -  °F | °C
As of 10:39 AM on Thursday 23 Oct 2014 (Local Time) from KBAX Reporting Station
Haze Haze  
Wind Chill: 40°   Ceiling: 200
Heat Index: 40°   Visibility: 1mi
Dew Point: 40°   Wind: 0mph
Humidity: 100%   Direction: NA
Pressure: 30.25"   Gusts: NA
Location:  43.8338°N, 83.2671°W
Report Text: KBAX 231439Z AUTO 00000KT 1SM BR OVC002 05/05 A3025 RMK AO2 T00450045
Loading
Personal Weather Stations






























Interactive Weather Map New forecast layout! Learn more

10-Day Weather Forecast

Advertisements
Track Severe Weather on mobile